Time;durP1;ratioP1;P1;durP2;ratioP2;P2;SDS_P1;SDS_P2;PMS_P1;PMS_P2;Temp;Humidity;BMP_temperature;BMP_pressure;BME280_temperature;BME280_humidity;BME280_pressure;Samples;Min_cycle;Max_cycle;Signal;HPM_P1;HPM_P2
2022/07/04 00:01:47;;;;;;;5.20;4.33;;;;;;;;;;5074576;28;20472;-71
2022/07/04 00:04:14;;;;;;;7.53;3.87;;;;;;;;;;5074224;28;20452;-72
2022/07/04 00:06:41;;;;;;;4.40;3.60;;;;;;;;;;5073774;28;20546;-72
2022/07/04 00:09:08;;;;;;;4.00;3.67;;;;;;;;;;5074065;28;20483;-71
2022/07/04 00:11:35;;;;;;;9.33;3.53;;;;;;;;;;5074370;28;20815;-71
2022/07/04 00:14:02;;;;;;;4.00;3.70;;;;;;;;;;5074361;28;20448;-71
2022/07/04 00:16:31;;;;;;;4.37;3.60;;;;;;;;;;5074333;28;20947;-71
2022/07/04 00:18:58;;;;;;;4.67;3.77;;;;;;;;;;5073934;28;20456;-71
2022/07/04 00:21:25;;;;;;;5.10;3.87;;;;;;;;;;5073803;28;20475;-71
2022/07/04 00:23:52;;;;;;;6.93;4.23;;;;;;;;;;5073975;28;20464;-71
2022/07/04 00:26:19;;;;;;;4.50;4.10;;;;;;;;;;5074091;28;20872;-71
2022/07/04 00:28:46;;;;;;;4.80;4.00;;;;;;;;;;5073950;28;20498;-71
2022/07/04 00:31:14;;;;;;;5.20;4.20;;;;;;;;;;5073643;28;20471;-71
2022/07/04 00:33:42;;;;;;;5.57;4.20;;;;;;;;;;5074217;28;20452;-71
2022/07/04 00:36:09;;;;;;;8.07;4.57;;;;;;;;;;5073683;28;20455;-71
2022/07/04 00:38:37;;;;;;;9.97;4.03;;;;;;;;;;5073978;28;20551;-71
2022/07/04 00:41:04;;;;;;;4.80;4.40;;;;;;;;;;5074175;28;20479;-71
2022/07/04 00:43:31;;;;;;;3.63;3.33;;;;;;;;;;5073911;28;20462;-72
2022/07/04 00:45:58;;;;;;;4.23;3.83;;;;;;;;;;5073703;28;20447;-72
2022/07/04 00:48:25;;;;;;;3.80;3.50;;;;;;;;;;5073462;28;20482;-71
2022/07/04 00:50:54;;;;;;;7.90;3.20;;;;;;;;;;5073375;28;20455;-71
2022/07/04 00:53:23;;;;;;;5.63;3.37;;;;;;;;;;5073751;28;20447;-71
2022/07/04 00:55:51;;;;;;;3.67;3.37;;;;;;;;;;5073806;28;20466;-72
2022/07/04 00:58:20;;;;;;;4.63;3.40;;;;;;;;;;5073400;28;20444;-72
2022/07/04 01:00:47;;;;;;;7.07;3.90;;;;;;;;;;5073580;28;20814;-72
2022/07/04 01:03:15;;;;;;;4.43;3.60;;;;;;;;;;5073598;28;20467;-72
2022/07/04 01:05:42;;;;;;;5.43;3.53;;;;;;;;;;5073538;28;20917;-71
2022/07/04 01:08:11;;;;;;;6.60;3.80;;;;;;;;;;5073198;28;20491;-71
2022/07/04 01:10:38;;;;;;;6.90;3.00;;;;;;;;;;5073428;28;20459;-71
2022/07/04 01:13:05;;;;;;;7.93;3.70;;;;;;;;;;5073451;28;20466;-71
2022/07/04 01:15:32;;;;;;;14.53;4.00;;;;;;;;;;5073134;28;20452;-71
2022/07/04 01:17:59;;;;;;;8.10;3.47;;;;;;;;;;5073360;28;21004;-71
2022/07/04 01:20:28;;;;;;;4.20;3.80;;;;;;;;;;5073345;28;20451;-71
2022/07/04 01:22:55;;;;;;;4.13;3.73;;;;;;;;;;5073231;28;20981;-71
2022/07/04 01:25:22;;;;;;;7.27;3.80;;;;;;;;;;5073161;28;20471;-71
2022/07/04 01:27:49;;;;;;;7.70;3.67;;;;;;;;;;5073297;28;20491;-71
2022/07/04 01:30:17;;;;;;;3.63;3.33;;;;;;;;;;5072960;28;20464;-71
2022/07/04 01:32:44;;;;;;;3.93;3.63;;;;;;;;;;5073227;28;20845;-71
2022/07/04 01:35:12;;;;;;;4.20;3.60;;;;;;;;;;5073187;28;20459;-71
2022/07/04 01:37:41;;;;;;;5.30;3.33;;;;;;;;;;5072944;28;20447;-71
2022/07/04 01:40:08;;;;;;;9.57;3.70;;;;;;;;;;5073266;28;20807;-71
2022/07/04 01:42:35;;;;;;;6.70;4.57;;;;;;;;;;5073411;28;20474;-71
2022/07/04 01:45:03;;;;;;;7.93;4.40;;;;;;;;;;5072843;28;20456;-71
2022/07/04 01:47:30;;;;;;;5.23;4.37;;;;;;;;;;5073030;28;20810;-72
2022/07/04 01:49:57;;;;;;;6.13;3.93;;;;;;;;;;5073088;28;20458;-71
2022/07/04 01:52:24;;;;;;;4.73;4.33;;;;;;;;;;5073124;28;21087;-71
2022/07/04 01:54:52;;;;;;;5.07;4.37;;;;;;;;;;5073366;28;20448;-71
2022/07/04 01:57:19;;;;;;;4.87;4.47;;;;;;;;;;5072750;28;20447;-71
2022/07/04 02:02:31;;;;;;;5.43;4.33;;;;;;;;;;5071965;28;20827;-71
2022/07/04 02:04:58;;;;;;;5.23;3.90;;;;;;;;;;5072707;28;20455;-71
2022/07/04 02:07:25;;;;;;;5.20;4.77;;;;;;;;;;5072957;28;20444;-71
2022/07/04 02:09:54;;;;;;;11.40;4.27;;;;;;;;;;5072626;28;20459;-71
2022/07/04 02:15:06;;;;;;;4.10;3.73;;;;;;;;;;5073149;28;20411;-71
2022/07/04 02:17:33;;;;;;;6.23;3.60;;;;;;;;;;5072533;28;20448;-71
2022/07/04 02:20:00;;;;;;;6.73;4.00;;;;;;;;;;5072840;28;20448;-71
2022/07/04 02:22:28;;;;;;;6.23;4.23;;;;;;;;;;5072458;28;20471;-72
2022/07/04 02:24:56;;;;;;;5.00;4.23;;;;;;;;;;5072453;28;20957;-71
2022/07/04 02:27:23;;;;;;;5.60;4.40;;;;;;;;;;5072701;28;20478;-71
2022/07/04 02:29:50;;;;;;;7.13;3.83;;;;;;;;;;5073771;28;20494;-71
2022/07/04 02:32:17;;;;;;;6.30;4.17;;;;;;;;;;5075984;28;20475;-71
2022/07/04 02:34:45;;;;;;;6.33;4.53;;;;;;;;;;5075977;28;20447;-71
2022/07/04 02:37:12;;;;;;;9.40;4.23;;;;;;;;;;5076522;28;20444;-71
2022/07/04 02:39:39;;;;;;;6.80;4.30;;;;;;;;;;5075899;28;20451;-71
2022/07/04 02:42:08;;;;;;;4.53;4.13;;;;;;;;;;5076062;28;20995;-71
2022/07/04 02:44:35;;;;;;;6.30;3.50;;;;;;;;;;5075809;28;20463;-71
2022/07/04 02:47:02;;;;;;;4.27;3.87;;;;;;;;;;5076284;28;20459;-71
2022/07/04 02:49:29;;;;;;;7.40;4.27;;;;;;;;;;5075653;28;20484;-71
2022/07/04 02:51:56;;;;;;;4.50;4.10;;;;;;;;;;5075889;28;20521;-71
2022/07/04 02:54:23;;;;;;;9.33;4.43;;;;;;;;;;5076421;28;20455;-71
2022/07/04 02:56:50;;;;;;;4.00;3.70;;;;;;;;;;5075597;28;20447;-71
2022/07/04 02:59:19;;;;;;;6.13;4.00;;;;;;;;;;5075901;28;20960;-71
2022/07/04 03:01:46;;;;;;;4.50;4.03;;;;;;;;;;5075823;28;20476;-71
2022/07/04 03:04:13;;;;;;;3.67;3.37;;;;;;;;;;5075634;28;20526;-71
2022/07/04 03:06:42;;;;;;;3.90;3.60;;;;;;;;;;5075912;28;20802;-71
2022/07/04 03:09:09;;;;;;;7.37;4.87;;;;;;;;;;5075843;28;20488;-71
2022/07/04 03:11:36;;;;;;;7.20;4.23;;;;;;;;;;5075808;28;20857;-71
2022/07/04 03:14:04;;;;;;;4.63;3.50;;;;;;;;;;5075905;28;20470;-71
2022/07/04 03:16:32;;;;;;;6.53;4.57;;;;;;;;;;5075525;28;20458;-71
2022/07/04 03:18:59;;;;;;;4.80;4.30;;;;;;;;;;5075776;28;20929;-71
2022/07/04 03:21:26;;;;;;;4.40;3.87;;;;;;;;;;5075714;28;20513;-71
2022/07/04 03:23:59;;;;;;;5.10;3.80;;;;;;;;;;5075536;28;20463;-71
2022/07/04 03:26:26;;;;;;;4.77;4.37;;;;;;;;;;5075903;28;20913;-71
2022/07/04 03:28:54;;;;;;;6.07;3.53;;;;;;;;;;5075412;28;20491;-71
2022/07/04 03:31:21;;;;;;;7.50;5.73;;;;;;;;;;5075425;28;20484;-71
2022/07/04 03:33:50;;;;;;;5.87;5.27;;;;;;;;;;5075691;28;20456;-71
2022/07/04 03:36:17;;;;;;;4.70;4.30;;;;;;;;;;5075452;28;20949;-71
2022/07/04 03:38:44;;;;;;;4.63;4.23;;;;;;;;;;5075667;28;20432;-71
2022/07/04 03:41:11;;;;;;;5.70;4.20;;;;;;;;;;5073869;28;20475;-71
2022/07/04 03:43:39;;;;;;;5.90;4.17;;;;;;;;;;5075454;28;20454;-71
2022/07/04 03:46:06;;;;;;;5.93;5.30;;;;;;;;;;5075096;28;21028;-71
2022/07/04 03:48:33;;;;;;;7.90;4.17;;;;;;;;;;5074915;28;20487;-71
2022/07/04 03:51:01;;;;;;;5.33;3.73;;;;;;;;;;5075476;28;20836;-71
2022/07/04 03:53:28;;;;;;;4.73;4.17;;;;;;;;;;5075084;28;20485;-71
2022/07/04 03:55:56;;;;;;;4.03;3.60;;;;;;;;;;5074928;28;20432;-71
2022/07/04 03:58:23;;;;;;;3.43;3.13;;;;;;;;;;5074740;28;20549;-71
2022/07/04 04:00:50;;;;;;;7.77;3.93;;;;;;;;;;5074579;28;20456;-71
2022/07/04 04:06:03;;;;;;;5.00;4.27;;;;;;;;;;5074382;28;20422;-71
2022/07/04 04:08:30;;;;;;;7.20;3.37;;;;;;;;;;5074486;28;20487;-71
2022/07/04 04:10:57;;;;;;;4.93;3.10;;;;;;;;;;5074422;28;20471;-71
2022/07/04 04:13:24;;;;;;;4.27;2.90;;;;;;;;;;5074548;28;20447;-71
2022/07/04 04:15:51;;;;;;;3.33;3.03;;;;;;;;;;5074129;28;20451;-71
2022/07/04 04:18:18;;;;;;;3.93;3.40;;;;;;;;;;5074477;28;20950;-71
2022/07/04 04:20:46;;;;;;;5.53;2.90;;;;;;;;;;5074651;28;20459;-71
2022/07/04 04:23:14;;;;;;;3.60;3.17;;;;;;;;;;5074459;28;20455;-71
2022/07/04 04:25:41;;;;;;;3.77;3.37;;;;;;;;;;5073881;28;20957;-71
2022/07/04 04:28:08;;;;;;;5.73;3.73;;;;;;;;;;5074420;28;20452;-71
2022/07/04 04:30:35;;;;;;;4.80;2.97;;;;;;;;;;5073686;28;20491;-71
2022/07/04 04:33:02;;;;;;;3.10;2.80;;;;;;;;;;5074096;28;20467;-71
2022/07/04 04:35:29;;;;;;;3.10;2.80;;;;;;;;;;5073781;28;20447;-71
2022/07/04 04:37:57;;;;;;;3.90;3.20;;;;;;;;;;5074059;28;20454;-71
2022/07/04 04:40:25;;;;;;;3.37;3.07;;;;;;;;;;5073897;28;20448;-71
2022/07/04 04:42:52;;;;;;;3.27;2.80;;;;;;;;;;5073926;28;20482;-71
2022/07/04 04:45:19;;;;;;;3.60;3.30;;;;;;;;;;5073662;28;20471;-71
2022/07/04 04:47:46;;;;;;;3.27;2.97;;;;;;;;;;5073957;28;20459;-71
2022/07/04 04:50:14;;;;;;;4.00;2.73;;;;;;;;;;5073807;28;20490;-71
2022/07/04 04:52:42;;;;;;;7.03;3.10;;;;;;;;;;5073465;28;20530;-71
2022/07/04 04:55:09;;;;;;;3.40;2.90;;;;;;;;;;5073683;28;20451;-71
2022/07/04 04:57:38;;;;;;;3.83;3.20;;;;;;;;;;5073432;28;20461;-71
2022/07/04 05:00:06;;;;;;;2.90;2.60;;;;;;;;;;5073740;28;20447;-71
2022/07/04 05:02:33;;;;;;;3.97;3.10;;;;;;;;;;5073269;28;20476;-71
2022/07/04 05:05:00;;;;;;;5.00;3.27;;;;;;;;;;5073836;28;20798;-70
2022/07/04 05:07:27;;;;;;;4.90;3.80;;;;;;;;;;5073732;28;20953;-70
2022/07/04 05:09:58;;;;;;;5.07;3.13;;;;;;;;;;5073407;28;20463;-70
2022/07/04 05:12:26;;;;;;;3.87;3.57;;;;;;;;;;5073288;28;20492;-71
2022/07/04 05:14:54;;;;;;;5.00;2.90;;;;;;;;;;5073688;28;20498;-70
2022/07/04 05:17:21;;;;;;;3.80;2.83;;;;;;;;;;5073622;28;20467;-70
2022/07/04 05:19:49;;;;;;;5.07;3.20;;;;;;;;;;5073634;28;20431;-71
2022/07/04 05:22:16;;;;;;;3.07;2.77;;;;;;;;;;5073704;28;20467;-70
2022/07/04 05:24:43;;;;;;;3.20;2.90;;;;;;;;;;5073212;28;20460;-70
2022/07/04 05:27:10;;;;;;;7.10;2.80;;;;;;;;;;5073244;28;20452;-70
2022/07/04 05:29:37;;;;;;;4.30;2.63;;;;;;;;;;5073097;28;20479;-70
2022/07/04 05:32:07;;;;;;;2.83;2.60;;;;;;;;;;5072941;28;20468;-70
2022/07/04 05:34:34;;;;;;;4.73;2.60;;;;;;;;;;5073272;28;20806;-70
2022/07/04 05:37:01;;;;;;;2.50;2.30;;;;;;;;;;5073331;28;20447;-70
2022/07/04 05:39:28;;;;;;;7.17;2.40;;;;;;;;;;5073247;28;20820;-71
2022/07/04 05:41:55;;;;;;;5.23;2.33;;;;;;;;;;5073172;28;20483;-71
2022/07/04 05:44:22;;;;;;;2.90;2.40;;;;;;;;;;5072895;28;20451;-71
2022/07/04 05:46:50;;;;;;;3.67;2.57;;;;;;;;;;5073227;28;20829;-71
2022/07/04 05:49:18;;;;;;;3.63;2.57;;;;;;;;;;5073034;28;20499;-71
2022/07/04 05:51:45;;;;;;;3.30;2.53;;;;;;;;;;5073081;28;20467;-71
2022/07/04 05:54:12;;;;;;;3.70;2.33;;;;;;;;;;5072877;28;20462;-71
2022/07/04 05:56:41;;;;;;;5.13;3.00;;;;;;;;;;5073151;28;20444;-71
2022/07/04 05:59:09;;;;;;;2.77;2.50;;;;;;;;;;5072775;28;20444;-71
2022/07/04 06:01:36;;;;;;;3.50;2.93;;;;;;;;;;5072414;28;20472;-71
2022/07/04 06:04:03;;;;;;;4.07;3.57;;;;;;;;;;5073021;28;20822;-71
2022/07/04 06:06:32;;;;;;;5.60;2.87;;;;;;;;;;5074653;28;20458;-71
2022/07/04 06:08:59;;;;;;;3.50;3.03;;;;;;;;;;5075439;28;20428;-71
2022/07/04 06:11:26;;;;;;;2.87;2.67;;;;;;;;;;5075368;28;20832;-71
2022/07/04 06:13:53;;;;;;;3.80;2.90;;;;;;;;;;5075159;28;20695;-71
2022/07/04 06:16:20;;;;;;;3.17;2.87;;;;;;;;;;5075006;28;20460;-71
2022/07/04 06:18:47;;;;;;;4.20;3.50;;;;;;;;;;5075172;28;20451;-71
2022/07/04 06:21:15;;;;;;;3.40;2.80;;;;;;;;;;5074629;28;20841;-71
2022/07/04 06:23:43;;;;;;;4.37;2.77;;;;;;;;;;5075140;28;20463;-71
2022/07/04 06:26:10;;;;;;;4.10;2.83;;;;;;;;;;5075208;28;20436;-71
2022/07/04 06:28:37;;;;;;;5.63;3.20;;;;;;;;;;5075141;28;20758;-71
2022/07/04 06:31:05;;;;;;;2.50;2.17;;;;;;;;;;5075641;28;21007;-71
2022/07/04 06:35:44;;;;;;;3.57;3.27;;;;;;;;;;5075977;28;20531;-71
2022/07/04 06:36:19;;;;;;;4.30;3.17;;;;;;;;;;5075640;28;20435;-71
2022/07/04 06:38:47;;;;;;;5.10;3.10;;;;;;;;;;5076517;28;20436;-71
2022/07/04 06:41:14;;;;;;;3.13;2.67;;;;;;;;;;5075681;28;20470;-71
2022/07/04 06:43:41;;;;;;;3.03;2.83;;;;;;;;;;5076184;28;20784;-71
2022/07/04 06:46:09;;;;;;;3.60;2.87;;;;;;;;;;5076128;28;20451;-72
2022/07/04 06:48:36;;;;;;;3.33;2.57;;;;;;;;;;5075783;28;20470;-71
2022/07/04 06:51:03;;;;;;;2.97;2.60;;;;;;;;;;5075584;28;20534;-71
2022/07/04 06:53:30;;;;;;;4.40;2.73;;;;;;;;;;5075992;28;20451;-71
2022/07/04 06:55:59;;;;;;;5.43;2.60;;;;;;;;;;5075730;28;20455;-71
2022/07/04 06:58:26;;;;;;;2.93;2.63;;;;;;;;;;5075924;28;20819;-71
2022/07/04 07:00:53;;;;;;;2.43;2.07;;;;;;;;;;5075568;28;20443;-71
2022/07/04 07:03:20;;;;;;;2.70;2.50;;;;;;;;;;5075511;28;20459;-71
2022/07/04 07:05:47;;;;;;;2.87;2.20;;;;;;;;;;5075788;28;20466;-71
2022/07/04 07:08:14;;;;;;;5.23;2.40;;;;;;;;;;5075645;28;20509;-71
2022/07/04 07:10:41;;;;;;;2.60;2.40;;;;;;;;;;5075286;28;20490;-71
2022/07/04 07:13:10;;;;;;;3.17;2.20;;;;;;;;;;5075630;28;20451;-71
2022/07/04 07:15:37;;;;;;;4.10;2.70;;;;;;;;;;5075462;28;20454;-71
2022/07/04 07:18:04;;;;;;;2.90;2.60;;;;;;;;;;5075236;28;20455;-71
2022/07/04 07:20:32;;;;;;;4.13;2.67;;;;;;;;;;5075298;28;20440;-71
2022/07/04 07:22:59;;;;;;;5.43;2.70;;;;;;;;;;5075331;28;20468;-71
2022/07/04 07:25:26;;;;;;;2.50;2.30;;;;;;;;;;5075286;28;20530;-71
2022/07/04 07:27:53;;;;;;;5.23;2.50;;;;;;;;;;5075370;28;20450;-71
2022/07/04 07:30:21;;;;;;;3.17;2.60;;;;;;;;;;5075223;28;20494;-71
2022/07/04 07:32:49;;;;;;;3.77;2.77;;;;;;;;;;5075478;28;20487;-71
2022/07/04 07:35:16;;;;;;;3.50;2.53;;;;;;;;;;5075189;28;20459;-71
2022/07/04 07:37:43;;;;;;;4.37;2.50;;;;;;;;;;5075488;28;20872;-71
2022/07/04 07:40:11;;;;;;;2.60;2.20;;;;;;;;;;5075100;28;20444;-71
2022/07/04 07:42:38;;;;;;;3.10;2.60;;;;;;;;;;5075056;28;20980;-71
2022/07/04 07:45:06;;;;;;;2.90;2.30;;;;;;;;;;5075281;28;20467;-71
2022/07/04 07:47:34;;;;;;;3.57;2.50;;;;;;;;;;5075005;28;20459;-71
2022/07/04 07:50:03;;;;;;;4.20;2.47;;;;;;;;;;5074824;28;20965;-71
2022/07/04 07:52:30;;;;;;;3.03;2.73;;;;;;;;;;5074482;28;20471;-72
2022/07/04 07:54:57;;;;;;;6.57;3.10;;;;;;;;;;5074591;28;20459;-71
2022/07/04 07:57:25;;;;;;;3.50;2.37;;;;;;;;;;5074689;28;20476;-71
2022/07/04 07:59:52;;;;;;;4.50;2.60;;;;;;;;;;5074434;28;20451;-71
2022/07/04 08:02:19;;;;;;;2.67;2.00;;;;;;;;;;5074656;28;20472;-71
2022/07/04 08:04:46;;;;;;;4.67;2.07;;;;;;;;;;5074584;28;20970;-71
2022/07/04 08:07:13;;;;;;;7.30;2.83;;;;;;;;;;5074619;28;21036;-71
2022/07/04 08:09:41;;;;;;;2.37;1.87;;;;;;;;;;5074462;28;20505;-71
2022/07/04 08:12:08;;;;;;;3.50;2.23;;;;;;;;;;5074650;28;20474;-71
2022/07/04 08:14:36;;;;;;;2.50;1.83;;;;;;;;;;5074058;28;20462;-71
2022/07/04 08:17:05;;;;;;;3.00;2.70;;;;;;;;;;5074352;28;20810;-71
2022/07/04 08:19:33;;;;;;;3.90;2.30;;;;;;;;;;5074318;28;20456;-71
2022/07/04 08:22:02;;;;;;;2.40;2.20;;;;;;;;;;5074222;28;20494;-71
2022/07/04 08:24:29;;;;;;;2.93;2.63;;;;;;;;;;5074121;28;20507;-71
2022/07/04 08:26:56;;;;;;;2.10;1.90;;;;;;;;;;5074049;28;20555;-71
2022/07/04 08:29:23;;;;;;;2.60;2.30;;;;;;;;;;5073966;28;20949;-71
2022/07/04 08:31:50;;;;;;;2.90;2.53;;;;;;;;;;5073885;28;20491;-71
2022/07/04 08:34:18;;;;;;;2.70;2.50;;;;;;;;;;5074103;28;20451;-71
2022/07/04 08:36:45;;;;;;;3.97;3.57;;;;;;;;;;5073984;28;20965;-71
2022/07/04 08:39:13;;;;;;;2.73;2.27;;;;;;;;;;5073998;28;20459;-71
2022/07/04 08:41:41;;;;;;;2.73;2.10;;;;;;;;;;5073860;28;20475;-71
2022/07/04 08:44:10;;;;;;;2.40;2.10;;;;;;;;;;5073868;28;20447;-71
2022/07/04 08:46:39;;;;;;;4.73;2.33;;;;;;;;;;5073601;28;20458;-71
2022/07/04 08:49:10;;;;;;;3.53;3.23;;;;;;;;;;5073526;28;20459;-71
2022/07/04 08:51:43;;;;;;;5.03;2.13;;;;;;;;;;5073477;28;20499;-71
2022/07/04 08:59:39;;;;;;;8.20;2.07;;;;;;;;;;5073559;28;20586;-71
2022/07/04 09:02:06;;;;;;;3.57;3.03;;;;;;;;;;5073576;28;20472;-71
2022/07/04 09:04:34;;;;;;;4.27;2.70;;;;;;;;;;5073353;28;20451;-71
2022/07/04 09:07:01;;;;;;;3.40;2.50;;;;;;;;;;5073297;28;20443;-71
2022/07/04 09:09:29;;;;;;;2.73;2.47;;;;;;;;;;5073634;28;20456;-71
2022/07/04 09:11:57;;;;;;;3.63;3.13;;;;;;;;;;5073194;28;20498;-71
2022/07/04 09:14:24;;;;;;;3.80;2.30;;;;;;;;;;5073502;28;20459;-71
2022/07/04 09:16:54;;;;;;;2.50;2.30;;;;;;;;;;5073158;28;20458;-71
2022/07/04 09:19:21;;;;;;;4.17;2.43;;;;;;;;;;5073478;28;20456;-71
2022/07/04 09:21:48;;;;;;;3.10;2.57;;;;;;;;;;5073609;28;20471;-71
2022/07/04 09:24:16;;;;;;;3.90;2.63;;;;;;;;;;5073268;28;20486;-71
2022/07/04 09:26:45;;;;;;;2.50;2.30;;;;;;;;;;5073449;28;20941;-72
2022/07/04 09:29:14;;;;;;;2.37;2.17;;;;;;;;;;5073329;28;20459;-72
2022/07/04 09:31:41;;;;;;;2.93;2.63;;;;;;;;;;5073411;28;20495;-71
2022/07/04 09:34:09;;;;;;;4.93;3.60;;;;;;;;;;5072961;28;20452;-71
2022/07/04 09:36:40;;;;;;;3.20;2.90;;;;;;;;;;5073072;28;20546;-71
2022/07/04 09:39:12;;;;;;;6.57;4.37;;;;;;;;;;5075196;28;20440;-71
2022/07/04 09:41:56;;;;;;;2.40;2.20;;;;;;;;;;5077264;28;20960;-71
2022/07/04 09:44:25;;;;;;;3.00;2.60;;;;;;;;;;5077354;28;20870;-71
2022/07/04 09:46:52;;;;;;;4.23;2.87;;;;;;;;;;5077553;28;20959;-71
2022/07/04 09:49:19;;;;;;;3.50;3.20;;;;;;;;;;5077220;28;20509;-71
2022/07/04 09:51:47;;;;;;;4.77;2.53;;;;;;;;;;5077008;28;20502;-71
2022/07/04 09:54:19;;;;;;;3.67;2.60;;;;;;;;;;5076843;28;20462;-71
2022/07/04 09:56:47;;;;;;;4.93;2.90;;;;;;;;;;5077050;28;20442;-71
2022/07/04 09:59:14;;;;;;;3.53;3.10;;;;;;;;;;5076682;28;20487;-71
2022/07/04 10:01:43;;;;;;;3.50;2.83;;;;;;;;;;5076890;28;20467;-71
2022/07/04 10:04:11;;;;;;;6.13;2.33;;;;;;;;;;5076880;28;20812;-71
2022/07/04 10:06:39;;;;;;;2.60;2.37;;;;;;;;;;5076553;28;20463;-72
2022/07/04 10:09:14;;;;;;;5.30;2.57;;;;;;;;;;5076513;28;20447;-72
2022/07/04 10:11:42;;;;;;;4.77;2.50;;;;;;;;;;5076582;28;20855;-72
2022/07/04 10:14:10;;;;;;;3.10;2.20;;;;;;;;;;5076965;28;20458;-71
2022/07/04 10:16:38;;;;;;;3.43;3.13;;;;;;;;;;5076627;28;20448;-71
2022/07/04 10:19:07;;;;;;;4.30;2.77;;;;;;;;;;5076600;28;20495;-71
2022/07/04 10:21:34;;;;;;;2.80;2.60;;;;;;;;;;5076241;28;20472;-71
2022/07/04 10:24:03;;;;;;;7.10;2.60;;;;;;;;;;5076210;28;20463;-71
2022/07/04 10:26:30;;;;;;;2.67;2.13;;;;;;;;;;5076321;28;20462;-71
2022/07/04 10:28:57;;;;;;;2.80;2.27;;;;;;;;;;5076622;28;20532;-71
2022/07/04 10:31:26;;;;;;;2.60;2.40;;;;;;;;;;5076319;28;20491;-71
2022/07/04 10:33:54;;;;;;;2.30;2.10;;;;;;;;;;5076373;28;20460;-71
2022/07/04 10:36:23;;;;;;;4.03;3.10;;;;;;;;;;5076224;28;20451;-71
2022/07/04 10:38:51;;;;;;;5.07;2.27;;;;;;;;;;5076228;28;20451;-72
2022/07/04 10:41:20;;;;;;;3.70;2.80;;;;;;;;;;5076194;28;20467;-71
2022/07/04 10:44:00;;;;;;;4.13;2.80;;;;;;;;;;5076168;28;20464;-71
2022/07/04 10:46:37;;;;;;;3.37;3.07;;;;;;;;;;5075764;28;20440;-71
2022/07/04 10:49:05;;;;;;;2.53;2.33;;;;;;;;;;5076444;28;20439;-71
2022/07/04 10:51:37;;;;;;;2.50;2.30;;;;;;;;;;5075181;28;21007;-71
2022/07/04 10:54:05;;;;;;;3.80;2.97;;;;;;;;;;5076060;28;20428;-71
2022/07/04 10:56:37;;;;;;;3.00;2.30;;;;;;;;;;5076039;28;20454;-71
2022/07/04 10:59:09;;;;;;;2.80;2.60;;;;;;;;;;5075987;28;20435;-71
2022/07/04 11:01:36;;;;;;;3.77;2.17;;;;;;;;;;5076149;28;20517;-71
2022/07/04 11:04:03;;;;;;;3.23;2.10;;;;;;;;;;5075877;28;20458;-71
2022/07/04 11:06:50;;;;;;;3.00;2.40;;;;;;;;;;5075790;28;20454;-71
2022/07/04 11:09:19;;;;;;;2.00;1.80;;;;;;;;;;5075646;28;20475;-71
2022/07/04 11:11:49;;;;;;;5.07;2.80;;;;;;;;;;5075346;28;20582;-72
2022/07/04 11:14:35;;;;;;;2.73;2.30;;;;;;;;;;5075376;28;20456;-72
2022/07/04 11:17:03;;;;;;;2.70;2.37;;;;;;;;;;5075448;28;20463;-71
2022/07/04 11:19:30;;;;;;;2.70;2.43;;;;;;;;;;5075611;28;20458;-72
2022/07/04 11:21:57;;;;;;;2.90;2.13;;;;;;;;;;5075505;28;20833;-72
2022/07/04 11:24:26;;;;;;;3.50;2.53;;;;;;;;;;5075415;28;20456;-72
2022/07/04 11:26:53;;;;;;;3.20;2.07;;;;;;;;;;5075086;28;20455;-72
2022/07/04 11:29:20;;;;;;;3.63;2.27;;;;;;;;;;5075358;28;20456;-72
2022/07/04 11:31:48;;;;;;;2.20;2.00;;;;;;;;;;5074831;28;20494;-72
2022/07/04 11:34:15;;;;;;;2.60;2.10;;;;;;;;;;5075405;28;20956;-72
2022/07/04 11:36:43;;;;;;;6.17;2.03;;;;;;;;;;5075229;28;20960;-72
2022/07/04 11:39:12;;;;;;;2.30;1.87;;;;;;;;;;5075113;28;20524;-72
2022/07/04 11:47:15;;;;;;;2.90;1.80;;;;;;;;;;5074834;28;20408;-72
2022/07/04 11:49:46;;;;;;;2.40;1.80;;;;;;;;;;5074965;28;20433;-72
2022/07/04 11:52:13;;;;;;;2.47;1.73;;;;;;;;;;5074668;28;20484;-72
2022/07/04 11:54:41;;;;;;;2.60;1.90;;;;;;;;;;5074800;28;20813;-72
2022/07/04 11:57:17;;;;;;;3.43;2.00;;;;;;;;;;5074814;28;20898;-72
2022/07/04 11:59:45;;;;;;;4.00;2.00;;;;;;;;;;5074853;28;20444;-72
2022/07/04 12:02:13;;;;;;;3.43;1.90;;;;;;;;;;5073608;28;20471;-72
2022/07/04 12:04:41;;;;;;;2.37;2.00;;;;;;;;;;5074784;28;20525;-72
2022/07/04 12:07:12;;;;;;;5.30;2.23;;;;;;;;;;5074599;28;20458;-72
2022/07/04 12:09:40;;;;;;;2.63;1.70;;;;;;;;;;5074556;28;20459;-72
2022/07/04 12:12:07;;;;;;;2.10;1.73;;;;;;;;;;5074539;28;20487;-72
2022/07/04 12:14:36;;;;;;;2.43;1.80;;;;;;;;;;5074468;28;20460;-72
2022/07/04 12:17:14;;;;;;;2.10;1.63;;;;;;;;;;5074444;28;20459;-72
2022/07/04 12:19:51;;;;;;;2.97;2.40;;;;;;;;;;5074034;28;20458;-72
2022/07/04 12:22:25;;;;;;;1.90;1.70;;;;;;;;;;5074317;28;20467;-72
2022/07/04 12:24:52;;;;;;;2.73;1.50;;;;;;;;;;5074150;28;20459;-72
2022/07/04 12:27:20;;;;;;;3.00;2.17;;;;;;;;;;5074356;28;20448;-72
2022/07/04 12:29:52;;;;;;;2.07;1.80;;;;;;;;;;5074198;28;20824;-72
2022/07/04 12:32:19;;;;;;;2.50;1.60;;;;;;;;;;5073938;28;20851;-72
2022/07/04 12:34:46;;;;;;;3.03;2.20;;;;;;;;;;5074013;28;20453;-73
2022/07/04 12:37:14;;;;;;;2.43;1.77;;;;;;;;;;5073809;28;20451;-72
2022/07/04 12:39:43;;;;;;;3.83;2.37;;;;;;;;;;5074120;28;20457;-72
2022/07/04 12:42:11;;;;;;;2.33;1.50;;;;;;;;;;5073934;28;20566;-72
2022/07/04 12:44:39;;;;;;;3.50;1.77;;;;;;;;;;5074172;28;20957;-72
2022/07/04 12:47:07;;;;;;;2.33;1.60;;;;;;;;;;5073817;28;20451;-72
2022/07/04 12:49:35;;;;;;;5.30;2.20;;;;;;;;;;5073748;28;20458;-72
2022/07/04 12:52:07;;;;;;;4.27;1.80;;;;;;;;;;5073274;28;20490;-72
2022/07/04 12:54:34;;;;;;;2.70;1.50;;;;;;;;;;5073725;28;20451;-72
2022/07/04 12:57:08;;;;;;;2.80;1.80;;;;;;;;;;5073466;28;20478;-72
2022/07/04 12:59:35;;;;;;;6.33;1.70;;;;;;;;;;5073624;28;20455;-72
2022/07/04 13:02:03;;;;;;;2.73;1.83;;;;;;;;;;5073270;28;20468;-72
2022/07/04 13:04:32;;;;;;;3.90;1.77;;;;;;;;;;5073568;28;20812;-72
2022/07/04 13:07:00;;;;;;;2.63;1.40;;;;;;;;;;5073508;28;20797;-72
2022/07/04 13:09:27;;;;;;;1.80;1.37;;;;;;;;;;5073801;28;20539;-72
2022/07/04 13:14:42;;;;;;;3.40;1.40;;;;;;;;;;5069218;28;20443;-73
2022/07/04 13:17:09;;;;;;;1.60;1.33;;;;;;;;;;5073082;28;20464;-72
2022/07/04 13:19:37;;;;;;;3.80;1.37;;;;;;;;;;5073352;28;20932;-72
2022/07/04 13:22:05;;;;;;;2.93;1.40;;;;;;;;;;5073559;28;20471;-72
2022/07/04 13:24:32;;;;;;;3.97;1.20;;;;;;;;;;5072962;28;20470;-72
2022/07/04 13:26:59;;;;;;;1.97;1.60;;;;;;;;;;5072878;28;20432;-72
2022/07/04 13:29:26;;;;;;;4.17;1.80;;;;;;;;;;5073360;28;20448;-72
2022/07/04 13:31:53;;;;;;;3.20;1.93;;;;;;;;;;5072600;28;20498;-72
2022/07/04 13:34:20;;;;;;;2.17;1.43;;;;;;;;;;5073264;28;20439;-72
2022/07/04 13:36:51;;;;;;;3.80;1.47;;;;;;;;;;5072868;28;20455;-72
2022/07/04 13:39:18;;;;;;;4.10;1.87;;;;;;;;;;5072908;28;20444;-72
2022/07/04 13:41:46;;;;;;;3.67;1.73;;;;;;;;;;5072790;28;20472;-72
2022/07/04 13:44:15;;;;;;;2.93;2.20;;;;;;;;;;5072867;28;20823;-72
2022/07/04 13:46:43;;;;;;;3.50;2.17;;;;;;;;;;5073168;28;20459;-72
2022/07/04 13:49:11;;;;;;;3.17;2.10;;;;;;;;;;5072965;28;20459;-72
2022/07/04 13:51:38;;;;;;;1.60;1.20;;;;;;;;;;5072878;28;20909;-72
2022/07/04 13:54:07;;;;;;;2.37;1.70;;;;;;;;;;5072988;28;20819;-72
2022/07/04 13:56:34;;;;;;;2.10;1.70;;;;;;;;;;5072692;28;20440;-72
2022/07/04 13:59:02;;;;;;;6.50;1.77;;;;;;;;;;5072688;28;20459;-72
2022/07/04 14:01:29;;;;;;;3.43;1.80;;;;;;;;;;5072854;28;20518;-72
2022/07/04 14:03:56;;;;;;;1.60;1.50;;;;;;;;;;5072938;28;20452;-72
2022/07/04 14:06:23;;;;;;;2.23;1.73;;;;;;;;;;5072900;28;20455;-72
2022/07/04 14:08:50;;;;;;;2.47;1.83;;;;;;;;;;5072491;28;20459;-72
2022/07/04 14:11:19;;;;;;;2.57;1.70;;;;;;;;;;5072865;28;20476;-72
2022/07/04 14:13:46;;;;;;;4.80;2.17;;;;;;;;;;5072875;28;20819;-72
2022/07/04 14:16:13;;;;;;;2.40;1.70;;;;;;;;;;5072904;28;20937;-72
2022/07/04 14:18:40;;;;;;;4.00;2.07;;;;;;;;;;5072891;28;20455;-72
2022/07/04 14:21:08;;;;;;;3.10;1.90;;;;;;;;;;5072481;28;20475;-72
2022/07/04 14:23:41;;;;;;;1.87;1.60;;;;;;;;;;5072636;28;20487;-72
2022/07/04 14:26:08;;;;;;;4.07;2.77;;;;;;;;;;5074100;28;20440;-72
2022/07/04 14:28:36;;;;;;;2.20;2.00;;;;;;;;;;5076550;28;20455;-73
2022/07/04 14:31:04;;;;;;;2.83;2.43;;;;;;;;;;5076348;28;20467;-72
2022/07/04 14:33:31;;;;;;;2.10;1.90;;;;;;;;;;5076304;28;20859;-72
2022/07/04 14:35:59;;;;;;;4.30;2.70;;;;;;;;;;5076304;28;20973;-72
2022/07/04 14:38:26;;;;;;;3.00;2.23;;;;;;;;;;5076204;28;20487;-72
2022/07/04 14:40:53;;;;;;;2.23;1.80;;;;;;;;;;5076168;28;20905;-72
2022/07/04 14:43:20;;;;;;;3.20;2.23;;;;;;;;;;5076128;28;20462;-72
2022/07/04 14:45:49;;;;;;;4.00;1.87;;;;;;;;;;5076132;28;20925;-72
2022/07/04 14:48:16;;;;;;;3.17;1.90;;;;;;;;;;5075610;28;20451;-72
2022/07/04 14:50:43;;;;;;;4.10;2.03;;;;;;;;;;5075652;28;20448;-72
2022/07/04 14:53:10;;;;;;;2.73;2.00;;;;;;;;;;5075671;28;20483;-72
2022/07/04 14:55:37;;;;;;;3.83;1.87;;;;;;;;;;5075760;28;20448;-72
2022/07/04 14:58:05;;;;;;;4.40;1.83;;;;;;;;;;5075963;28;20822;-72
2022/07/04 15:00:32;;;;;;;2.97;2.37;;;;;;;;;;5075977;28;20443;-72
2022/07/04 15:03:00;;;;;;;4.50;1.80;;;;;;;;;;5076040;28;20834;-72
2022/07/04 15:05:27;;;;;;;3.37;2.00;;;;;;;;;;5075984;28;20471;-72
2022/07/04 15:07:55;;;;;;;2.43;2.23;;;;;;;;;;5076056;28;20459;-72
2022/07/04 15:10:23;;;;;;;2.30;1.70;;;;;;;;;;5075786;28;20530;-72